Terminal Aerodrome Forecast
Issued by NWS Wilmington, NC

Home | Current Version | Previous Version | Text Only | Print | Product List | Glossary On
Versions: 1 2 3 4 5 6 7 8 9 10 11 12 13 14 15 16 17 18 19 20 21 22 23 24
051
FTUS42 KILM 161722
TAFMYR
TAF
KMYR 161722Z 1618/1718 05005KT P6SM BKN008
      TEMPO 1618/1620 SCT008 BKN015
     FM162000 05005KT P6SM OVC020
     FM170200 04005KT P6SM BKN007
     FM170800 02003KT 4SM BR OVC004
     FM171600 19008KT P6SM SCT007 BKN020=

USA.gov is the U.S. government's official web portal to all federal, state and local government web resources and services.